Time;durP1;ratioP1;P1;durP2;ratioP2;P2;SDS_P1;SDS_P2;PMS_P1;PMS_P2;Temp;Humidity;BMP_temperature;BMP_pressure;BME280_temperature;BME280_humidity;BME280_pressure;Samples;Min_cycle;Max_cycle;Signal;HPM_P1;HPM_P2
2023/05/21 00:01:02;;;;;;;0.20;0.20;;;7.30;99.90;;;;;;5074627;28;20664;-70
2023/05/21 00:03:29;;;;;;;0.20;0.20;;;7.30;99.90;;;;;;5074564;28;20287;-70
2023/05/21 00:05:55;;;;;;;0.40;0.40;;;7.30;99.90;;;;;;5075083;28;20610;-71
2023/05/21 00:08:22;;;;;;;0.20;0.20;;;7.20;99.90;;;;;;5074801;28;20272;-71
2023/05/21 00:10:48;;;;;;;0.20;0.20;;;7.20;99.90;;;;;;5075103;28;20238;-71
2023/05/21 00:13:13;;;;;;;0.20;0.20;;;7.20;99.90;;;;;;5075116;28;20192;-71
2023/05/21 00:15:39;;;;;;;0.30;0.30;;;7.20;99.90;;;;;;5074787;28;20648;-71
2023/05/21 00:18:05;;;;;;;0.25;0.25;;;7.10;99.90;;;;;;5075015;28;20204;-70
2023/05/21 00:20:31;;;;;;;0.20;0.20;;;7.00;99.90;;;;;;5073891;28;20231;-71
2023/05/21 00:23:04;;;;;;;0.30;0.30;;;7.00;99.90;;;;;;5057313;28;20194;-70
2023/05/21 00:25:29;;;;;;;0.28;0.28;;;6.90;99.90;;;;;;5069951;28;20208;-71
2023/05/21 00:27:55;;;;;;;0.30;0.30;;;6.90;99.90;;;;;;5095037;28;20207;-71
2023/05/21 00:30:21;;;;;;;0.20;0.20;;;6.80;99.90;;;;;;5094739;28;20188;-71
2023/05/21 00:32:47;;;;;;;0.30;0.30;;;6.80;99.90;;;;;;5094973;28;20206;-71
2023/05/21 00:35:13;;;;;;;0.30;0.30;;;6.70;99.90;;;;;;5094845;28;20658;-71
2023/05/21 00:37:39;;;;;;;0.30;0.30;;;6.70;99.90;;;;;;5094569;28;20276;-71
2023/05/21 00:40:10;;;;;;;0.20;0.20;;;6.70;99.90;;;;;;5094748;28;20196;-71
2023/05/21 00:42:40;;;;;;;0.20;0.20;;;6.70;99.90;;;;;;5094152;28;20263;-70
2023/05/21 00:45:07;;;;;;;0.20;0.20;;;6.60;99.90;;;;;;5078129;28;20232;-70
2023/05/21 00:47:33;;;;;;;0.30;0.30;;;6.60;99.90;;;;;;5074039;28;20180;-71
2023/05/21 00:50:01;;;;;;;0.20;0.20;;;6.60;99.90;;;;;;5074342;28;20189;-71
2023/05/21 00:52:27;;;;;;;0.20;0.20;;;6.50;99.90;;;;;;5073934;28;20227;-70
2023/05/21 00:54:53;;;;;;;0.30;0.30;;;6.50;99.90;;;;;;5074262;28;20209;-70
2023/05/21 00:57:21;;;;;;;0.30;0.30;;;6.50;99.90;;;;;;5074027;28;20266;-70
2023/05/21 00:59:50;;;;;;;0.30;0.30;;;6.50;99.90;;;;;;5074117;28;20210;-70
2023/05/21 01:02:19;;;;;;;0.30;0.30;;;6.40;99.90;;;;;;5073645;28;20193;-70
2023/05/21 01:04:45;;;;;;;0.30;0.30;;;6.40;99.90;;;;;;5054492;22;20236;-75
2023/05/21 01:07:11;;;;;;;0.30;0.30;;;6.30;99.90;;;;;;5015583;28;20253;-75
2023/05/21 01:09:38;;;;;;;0.52;0.50;;;6.30;99.90;;;;;;5015471;28;20233;-75
2023/05/21 01:12:04;;;;;;;0.30;0.30;;;6.30;99.90;;;;;;5033355;28;20285;-75
2023/05/21 01:14:31;;;;;;;0.50;0.50;;;6.30;99.90;;;;;;5015376;28;20205;-75
2023/05/21 01:17:00;;;;;;;0.20;0.20;;;6.20;99.90;;;;;;5033299;28;20217;-75
2023/05/21 01:19:27;;;;;;;0.30;0.30;;;6.20;99.90;;;;;;5032900;28;20695;-75
2023/05/21 01:22:00;;;;;;;0.30;0.30;;;6.20;99.90;;;;;;5033050;28;20201;-75
2023/05/21 01:24:26;;;;;;;0.30;0.30;;;6.20;99.90;;;;;;5032871;28;20216;-75
2023/05/21 01:26:52;;;;;;;0.30;0.30;;;6.20;99.90;;;;;;5032995;28;20209;-75
2023/05/21 01:29:18;;;;;;;0.22;0.22;;;6.10;99.90;;;;;;5032975;28;20216;-75
2023/05/21 01:31:59;;;;;;;0.30;0.30;;;6.10;99.90;;;;;;5032678;28;20190;-75
2023/05/21 01:34:36;;;;;;;0.40;0.40;;;6.10;99.90;;;;;;5014795;28;20190;-75
2023/05/21 01:37:27;;;;;;;0.30;0.30;;;6.00;99.90;;;;;;5032893;28;20205;-75
2023/05/21 01:39:59;;;;;;;0.30;0.30;;;6.00;99.90;;;;;;5032781;28;20209;-75
2023/05/21 01:42:27;;;;;;;0.30;0.30;;;6.00;99.90;;;;;;5032667;28;20193;-75
2023/05/21 01:44:55;;;;;;;0.40;0.40;;;6.00;99.90;;;;;;5032485;28;20672;-75
2023/05/21 01:47:28;;;;;;;0.30;0.30;;;5.90;99.90;;;;;;5032302;28;20217;-75
2023/05/21 01:49:55;;;;;;;0.55;0.55;;;5.90;99.90;;;;;;5032732;28;20194;-75
2023/05/21 01:52:20;;;;;;;0.20;0.20;;;5.90;99.90;;;;;;5032618;28;20677;-75
2023/05/21 01:54:48;;;;;;;0.30;0.30;;;5.90;99.90;;;;;;5032645;28;20232;-75
2023/05/21 01:57:15;;;;;;;0.30;0.30;;;5.90;99.90;;;;;;5032664;28;20197;-75
2023/05/21 01:59:43;;;;;;;0.20;0.20;;;5.80;99.90;;;;;;5032457;28;20202;-75
2023/05/21 02:02:09;;;;;;;0.22;0.22;;;5.80;99.90;;;;;;5031561;28;20201;-75
2023/05/21 02:04:34;;;;;;;0.30;0.30;;;5.80;99.90;;;;;;5032088;28;20307;-75
2023/05/21 02:07:01;;;;;;;0.20;0.20;;;5.70;99.90;;;;;;5032433;28;20217;-75
2023/05/21 02:09:26;;;;;;;0.30;0.30;;;5.70;99.90;;;;;;5032276;28;20649;-75
2023/05/21 02:11:52;;;;;;;0.30;0.30;;;5.70;99.90;;;;;;5032460;28;20225;-75
2023/05/21 02:14:19;;;;;;;0.30;0.30;;;5.60;99.90;;;;;;5014549;28;20200;-75
2023/05/21 02:16:45;;;;;;;0.30;0.30;;;5.70;99.90;;;;;;5014661;28;20194;-75
2023/05/21 02:19:10;;;;;;;0.30;0.30;;;5.60;99.90;;;;;;5032303;28;20316;-75
2023/05/21 02:21:36;;;;;;;0.30;0.30;;;5.60;99.90;;;;;;5014225;28;20259;-75
2023/05/21 02:24:02;;;;;;;0.30;0.30;;;5.50;99.90;;;;;;5032346;28;20194;-75
2023/05/21 02:26:27;;;;;;;0.30;0.30;;;5.50;99.90;;;;;;5030796;28;20210;-75
2023/05/21 02:28:54;;;;;;;0.30;0.30;;;5.50;99.90;;;;;;5014662;28;20293;-75
2023/05/21 02:31:20;;;;;;;0.30;0.30;;;5.50;99.90;;;;;;5032164;28;20600;-74
2023/05/21 02:33:45;;;;;;;0.30;0.30;;;5.50;99.90;;;;;;5014556;28;20281;-75
2023/05/21 02:36:11;;;;;;;2.58;1.48;;;5.50;99.90;;;;;;5032190;28;20194;-75
2023/05/21 02:38:42;;;;;;;1.15;0.70;;;5.50;99.90;;;;;;5030678;28;20194;-74
2023/05/21 02:41:11;;;;;;;0.30;0.30;;;5.50;99.90;;;;;;5031903;28;20198;-75
2023/05/21 02:43:37;;;;;;;0.30;0.30;;;5.50;99.90;;;;;;5031770;28;20197;-74
2023/05/21 02:46:05;;;;;;;0.30;0.30;;;5.60;99.90;;;;;;5034469;28;20688;-75
2023/05/21 02:48:31;;;;;;;0.30;0.30;;;5.50;99.90;;;;;;5035904;28;20197;-74
2023/05/21 02:50:57;;;;;;;0.30;0.30;;;5.60;99.90;;;;;;5036110;28;20194;-75
2023/05/21 02:53:23;;;;;;;0.30;0.30;;;5.60;99.90;;;;;;5034414;28;20258;-74
2023/05/21 02:55:49;;;;;;;0.30;0.30;;;5.60;99.90;;;;;;5034647;28;20199;-75
2023/05/21 02:58:14;;;;;;;0.30;0.30;;;5.70;99.90;;;;;;5035776;28;20570;-75
2023/05/21 03:00:40;;;;;;;0.30;0.30;;;5.70;99.90;;;;;;5030525;28;20199;-74
2023/05/21 03:03:06;;;;;;;0.60;0.60;;;5.70;99.90;;;;;;5031051;28;20698;-74
2023/05/21 03:05:32;;;;;;;0.30;0.30;;;5.70;99.90;;;;;;5017859;28;20245;-75
2023/05/21 03:07:57;;;;;;;0.30;0.30;;;5.80;99.90;;;;;;5035700;28;20273;-75
2023/05/21 03:10:23;;;;;;;0.30;0.30;;;5.80;99.90;;;;;;5035403;28;20225;-75
2023/05/21 03:12:49;;;;;;;0.30;0.30;;;5.90;99.90;;;;;;5017894;28;20201;-74
2023/05/21 03:15:15;;;;;;;0.30;0.30;;;5.90;99.90;;;;;;5035496;28;20186;-75
2023/05/21 03:17:41;;;;;;;0.40;0.40;;;6.00;99.90;;;;;;5035434;28;20249;-74
2023/05/21 03:20:15;;;;;;;0.30;0.30;;;6.00;99.90;;;;;;5017742;28;20260;-74
2023/05/21 03:22:45;;;;;;;0.50;0.50;;;6.10;99.90;;;;;;5035092;28;20198;-75
2023/05/21 03:25:11;;;;;;;0.30;0.30;;;6.20;99.90;;;;;;5035292;28;20807;-75
2023/05/21 03:27:37;;;;;;;0.30;0.30;;;6.30;99.90;;;;;;5035132;28;20667;-75
2023/05/21 03:30:03;;;;;;;0.30;0.30;;;6.40;99.90;;;;;;5035211;28;20190;-75
2023/05/21 03:32:29;;;;;;;0.20;0.20;;;6.40;99.90;;;;;;5035136;28;20198;-75
2023/05/21 03:34:55;;;;;;;0.30;0.30;;;6.50;99.90;;;;;;5035210;28;20274;-75
2023/05/21 03:37:21;;;;;;;0.30;0.30;;;6.60;99.90;;;;;;5034705;28;20198;-75
2023/05/21 03:39:46;;;;;;;0.30;0.30;;;6.70;99.90;;;;;;5017431;28;20232;-75
2023/05/21 03:42:13;;;;;;;0.30;0.30;;;6.80;99.90;;;;;;5035084;28;20195;-75
2023/05/21 03:44:39;;;;;;;0.30;0.30;;;6.90;99.90;;;;;;5016859;28;20202;-75
2023/05/21 03:47:04;;;;;;;0.30;0.30;;;7.10;99.90;;;;;;5033592;28;20225;-75
2023/05/21 03:49:30;;;;;;;0.30;0.30;;;7.20;99.90;;;;;;5033471;28;20587;-76
2023/05/21 03:51:56;;;;;;;0.30;0.30;;;7.40;99.90;;;;;;5034843;28;20291;-74
2023/05/21 03:54:22;;;;;;;0.30;0.30;;;7.50;99.90;;;;;;5034691;28;20186;-75
2023/05/21 03:56:47;;;;;;;0.30;0.30;;;7.60;99.90;;;;;;5034439;28;20295;-75
2023/05/21 03:59:13;;;;;;;0.20;0.20;;;7.80;99.90;;;;;;5016930;28;20202;-75
2023/05/21 04:01:39;;;;;;;0.30;0.30;;;8.00;99.90;;;;;;5034392;28;20591;-75
2023/05/21 04:04:04;;;;;;;0.22;0.22;;;8.10;99.90;;;;;;5034420;28;20310;-75
2023/05/21 04:06:30;;;;;;;0.20;0.20;;;8.20;99.90;;;;;;5034258;28;20206;-75
2023/05/21 04:08:56;;;;;;;0.30;0.30;;;8.30;99.90;;;;;;5034626;28;20693;-75
2023/05/21 04:11:21;;;;;;;0.30;0.30;;;8.50;99.90;;;;;;5034380;28;20197;-76
2023/05/21 04:13:47;;;;;;;0.20;0.20;;;8.60;99.90;;;;;;5034620;28;20190;-75
2023/05/21 04:16:17;;;;;;;0.20;0.20;;;8.70;99.90;;;;;;5034440;28;20680;-75
2023/05/21 04:18:44;;;;;;;0.20;0.20;;;8.80;99.90;;;;;;5034299;28;20252;-75
2023/05/21 04:21:10;;;;;;;0.30;0.30;;;8.90;99.90;;;;;;5034292;28;20273;-76
2023/05/21 04:23:36;;;;;;;0.20;0.20;;;9.00;99.90;;;;;;5034057;28;20280;-75
2023/05/21 04:26:01;;;;;;;0.20;0.20;;;9.10;99.90;;;;;;5016353;28;20241;-76
2023/05/21 04:28:27;;;;;;;0.20;0.20;;;9.20;99.90;;;;;;5034120;28;20236;-76
2023/05/21 04:30:55;;;;;;;0.20;0.20;;;9.30;99.90;;;;;;5034246;28;20193;-76
2023/05/21 04:33:21;;;;;;;0.20;0.20;;;9.50;99.90;;;;;;5015925;28;20194;-76
2023/05/21 04:35:50;;;;;;;0.20;0.20;;;9.60;99.90;;;;;;5034100;28;20190;-75
2023/05/21 04:38:18;;;;;;;0.30;0.30;;;9.70;99.90;;;;;;5016313;28;20202;-75
2023/05/21 04:40:51;;;;;;;0.20;0.20;;;9.80;99.90;;;;;;5034034;28;20285;-75
2023/05/21 04:43:17;;;;;;;0.40;0.40;;;9.90;99.90;;;;;;5033684;28;20677;-75
2023/05/21 04:45:43;;;;;;;0.20;0.20;;;9.90;99.90;;;;;;5033766;28;20202;-75
2023/05/21 04:48:08;;;;;;;0.20;0.20;;;10.10;99.90;;;;;;5032533;28;20202;-76
2023/05/21 04:50:34;;;;;;;0.20;0.20;;;10.20;99.90;;;;;;5033703;28;20190;-76
2023/05/21 04:53:02;;;;;;;0.20;0.20;;;10.20;99.90;;;;;;5016857;28;20676;-75
2023/05/21 04:55:28;;;;;;;0.40;0.40;;;10.30;99.90;;;;;;5013770;28;20191;-76
2023/05/21 04:57:53;;;;;;;0.20;0.20;;;10.30;99.90;;;;;;5007788;28;20240;-76
2023/05/21 05:00:21;;;;;;;0.82;0.75;;;10.50;99.90;;;;;;5033403;28;20194;-76
2023/05/21 05:02:47;;;;;;;0.30;0.30;;;10.60;99.90;;;;;;5015753;28;20644;-75
2023/05/21 05:05:12;;;;;;;0.20;0.20;;;10.70;99.90;;;;;;5033347;28;20261;-75
2023/05/21 05:07:38;;;;;;;6.05;0.68;;;10.90;99.90;;;;;;5032531;28;20205;-76
2023/05/21 05:10:04;;;;;;;0.85;0.80;;;11.00;99.90;;;;;;5033363;28;20257;-76
2023/05/21 05:12:30;;;;;;;0.20;0.20;;;11.20;99.90;;;;;;5015500;28;20221;-75
2023/05/21 05:14:55;;;;;;;0.20;0.20;;;11.30;99.90;;;;;;5015462;28;20210;-76
2023/05/21 05:17:21;;;;;;;0.38;0.38;;;11.40;99.90;;;;;;5015397;28;20198;-75
2023/05/21 05:19:47;;;;;;;0.20;0.20;;;11.60;99.90;;;;;;5033329;28;20281;-76
2023/05/21 05:22:13;;;;;;;0.30;0.30;;;11.70;99.90;;;;;;5033179;28;20197;-76
2023/05/21 05:24:38;;;;;;;0.20;0.20;;;11.80;99.90;;;;;;5015250;28;20216;-75
2023/05/21 05:27:04;;;;;;;0.20;0.20;;;11.90;99.90;;;;;;5033030;28;20731;-76
2023/05/21 05:29:30;;;;;;;0.35;0.35;;;12.10;99.90;;;;;;5032689;28;20199;-75
2023/05/21 05:31:55;;;;;;;0.20;0.20;;;12.30;99.90;;;;;;5033052;28;20247;-75
2023/05/21 05:34:21;;;;;;;1.65;1.27;;;12.40;99.90;;;;;;5032728;28;20194;-76
2023/05/21 05:36:47;;;;;;;0.10;0.10;;;12.60;99.90;;;;;;5032914;28;20201;-76
2023/05/21 05:39:13;;;;;;;0.20;0.20;;;12.90;99.90;;;;;;5015240;28;20194;-75
2023/05/21 05:41:38;;;;;;;0.63;0.63;;;12.90;99.90;;;;;;5014926;28;20216;-76
2023/05/21 05:44:04;;;;;;;0.15;0.15;;;13.00;99.90;;;;;;5032591;28;20194;-75
2023/05/21 05:46:30;;;;;;;0.10;0.10;;;13.10;99.90;;;;;;5032629;28;20210;-75
2023/05/21 05:48:55;;;;;;;5.50;0.17;;;13.20;99.90;;;;;;5015086;28;20244;-75
2023/05/21 05:51:21;;;;;;;0.20;0.20;;;13.40;99.90;;;;;;5032546;28;20190;-75
2023/05/21 05:53:47;;;;;;;0.20;0.20;;;13.60;99.90;;;;;;5032725;28;20198;-76
2023/05/21 05:56:13;;;;;;;0.45;0.45;;;13.70;99.90;;;;;;5014878;28;20198;-76
2023/05/21 05:58:38;;;;;;;0.10;0.10;;;13.90;99.90;;;;;;5032356;28;20575;-76
2023/05/21 06:01:04;;;;;;;0.20;0.20;;;14.00;99.90;;;;;;5032570;28;20194;-76
2023/05/21 06:03:30;;;;;;;0.20;0.20;;;14.20;99.90;;;;;;5030653;28;20213;-76
2023/05/21 06:05:56;;;;;;;0.20;0.20;;;14.50;99.90;;;;;;5032437;28;20214;-75
2023/05/21 06:08:22;;;;;;;0.20;0.20;;;14.50;99.90;;;;;;5032272;28;20194;-76
2023/05/21 06:10:47;;;;;;;0.70;0.52;;;14.40;99.90;;;;;;5032311;28;20255;-77
2023/05/21 06:13:13;;;;;;;0.10;0.10;;;14.10;99.90;;;;;;5032465;28;20197;-77
2023/05/21 06:15:41;;;;;;;0.55;0.52;;;13.90;99.90;;;;;;5014568;28;20589;-76
2023/05/21 06:18:07;;;;;;;0.32;0.32;;;14.00;99.90;;;;;;5015101;28;20209;-76
2023/05/21 06:20:33;;;;;;;2.92;0.82;;;13.90;99.90;;;;;;5036227;28;20194;-76
2023/05/21 06:22:59;;;;;;;0.20;0.20;;;13.80;99.90;;;;;;5019027;28;20209;-76
2023/05/21 06:25:25;;;;;;;0.35;0.35;;;13.60;99.90;;;;;;5035802;28;20194;-76
2023/05/21 06:27:51;;;;;;;0.20;0.20;;;13.50;99.90;;;;;;5018822;28;20194;-76
2023/05/21 06:30:17;;;;;;;0.22;0.22;;;13.40;99.90;;;;;;5036244;28;20537;-75
2023/05/21 06:32:43;;;;;;;0.20;0.20;;;13.50;99.90;;;;;;5018414;28;20198;-76
2023/05/21 06:35:09;;;;;;;0.20;0.20;;;13.50;99.90;;;;;;5036161;28;20217;-76
2023/05/21 06:37:34;;;;;;;0.15;0.15;;;13.60;99.90;;;;;;5035865;28;20220;-76
2023/05/21 06:40:01;;;;;;;0.20;0.20;;;13.80;99.90;;;;;;5018360;28;20202;-76
2023/05/21 06:42:26;;;;;;;0.10;0.10;;;14.10;99.90;;;;;;5018177;28;20198;-76
2023/05/21 06:44:52;;;;;;;0.40;0.40;;;14.40;99.90;;;;;;5035841;28;20202;-76
2023/05/21 06:47:18;;;;;;;0.20;0.20;;;14.60;99.90;;;;;;5035849;28;20680;-76
2023/05/21 06:49:43;;;;;;;0.28;0.28;;;14.90;99.90;;;;;;5035836;28;20213;-76
2023/05/21 06:52:10;;;;;;;0.10;0.10;;;15.10;99.90;;;;;;5035882;28;20222;-76
2023/05/21 06:54:35;;;;;;;2.20;0.40;;;15.50;99.90;;;;;;5035563;28;20195;-76
2023/05/21 06:57:01;;;;;;;0.28;0.25;;;15.90;99.90;;;;;;5035841;28;20201;-76
2023/05/21 06:59:27;;;;;;;0.25;0.25;;;15.80;99.90;;;;;;5035589;28;20251;-76
2023/05/21 07:01:52;;;;;;;0.35;0.32;;;16.00;99.90;;;;;;5017792;28;20703;-76
2023/05/21 07:04:18;;;;;;;0.10;0.10;;;15.80;99.90;;;;;;5035294;28;20234;-76
2023/05/21 07:06:44;;;;;;;0.10;0.10;;;15.40;99.90;;;;;;5035482;28;20685;-75
2023/05/21 07:09:10;;;;;;;0.10;0.10;;;15.50;99.90;;;;;;5035611;28;20281;-76
2023/05/21 07:11:35;;;;;;;0.30;0.30;;;15.90;99.90;;;;;;5017712;28;20578;-76
2023/05/21 07:14:02;;;;;;;0.10;0.10;;;16.30;99.90;;;;;;5017703;28;20224;-77
2023/05/21 07:16:28;;;;;;;0.15;0.15;;;16.20;99.90;;;;;;5017577;28;20206;-75
2023/05/21 07:18:54;;;;;;;0.10;0.10;;;16.30;99.90;;;;;;5035427;28;20304;-76
2023/05/21 07:21:20;;;;;;;0.28;0.28;;;16.40;99.90;;;;;;5017220;28;20681;-76
2023/05/21 07:23:46;;;;;;;0.25;0.20;;;16.40;99.90;;;;;;5017637;28;20210;-77
2023/05/21 07:26:12;;;;;;;0.30;0.30;;;16.60;99.90;;;;;;5035248;28;20354;-76
2023/05/21 07:28:37;;;;;;;0.98;0.30;;;16.60;99.90;;;;;;5035099;28;20186;-76
2023/05/21 07:31:03;;;;;;;0.10;0.10;;;16.60;99.90;;;;;;5034613;28;20198;-76
2023/05/21 07:33:29;;;;;;;0.30;0.30;;;16.80;99.90;;;;;;5035060;28;20209;-77
2023/05/21 07:35:54;;;;;;;0.20;0.20;;;17.10;99.90;;;;;;5035101;28;20198;-76
2023/05/21 07:38:20;;;;;;;0.03;0.03;;;17.20;99.90;;;;;;5035076;28;20190;-76
2023/05/21 07:40:46;;;;;;;0.25;0.20;;;17.50;99.90;;;;;;5017276;28;20209;-76
2023/05/21 07:43:12;;;;;;;0.10;0.10;;;17.90;99.90;;;;;;5034970;28;20232;-77
2023/05/21 07:45:37;;;;;;;0.25;0.25;;;17.90;99.90;;;;;;5034525;28;20247;-77
2023/05/21 07:48:03;;;;;;;0.22;0.22;;;17.70;99.90;;;;;;5034900;28;20599;-76
2023/05/21 07:50:30;;;;;;;0.70;0.55;;;18.10;99.90;;;;;;5034526;28;20198;-77
2023/05/21 07:52:55;;;;;;;0.20;0.20;;;18.00;99.90;;;;;;5017187;28;20288;-76
2023/05/21 07:55:21;;;;;;;0.00;0.00;;;18.30;99.90;;;;;;5017014;28;20194;-76
2023/05/21 07:57:47;;;;;;;0.40;0.40;;;18.50;99.90;;;;;;5016981;28;20196;-76
2023/05/21 08:00:13;;;;;;;0.10;0.10;;;18.30;99.90;;;;;;5016871;28;20197;-77
2023/05/21 08:02:39;;;;;;;0.32;0.32;;;17.50;99.90;;;;;;5016338;28;20752;-77
2023/05/21 08:05:05;;;;;;;0.30;0.30;;;17.20;99.90;;;;;;5016484;28;20230;-77
2023/05/21 08:07:31;;;;;;;0.28;0.28;;;17.30;99.90;;;;;;5034194;28;20680;-77
2023/05/21 08:09:57;;;;;;;0.17;0.17;;;17.30;99.90;;;;;;5034535;28;20201;-77
2023/05/21 08:12:23;;;;;;;0.20;0.20;;;17.60;99.90;;;;;;5016456;28;20225;-76
2023/05/21 08:14:49;;;;;;;0.17;0.17;;;17.20;99.90;;;;;;5016734;28;20205;-76
2023/05/21 08:17:15;;;;;;;0.35;0.28;;;17.10;99.90;;;;;;5034441;28;20195;-76
2023/05/21 08:19:41;;;;;;;0.22;0.20;;;17.20;99.90;;;;;;5034315;28;20198;-76
2023/05/21 08:22:07;;;;;;;0.43;0.40;;;17.10;99.90;;;;;;5034250;28;20561;-76
2023/05/21 08:24:33;;;;;;;0.10;0.10;;;17.10;99.90;;;;;;5016209;28;20233;-77
2023/05/21 08:26:59;;;;;;;0.40;0.40;;;17.10;99.90;;;;;;5034194;28;20573;-77
2023/05/21 08:29:24;;;;;;;0.10;0.10;;;17.20;99.90;;;;;;5016397;28;20201;-77
2023/05/21 08:31:50;;;;;;;0.10;0.10;;;17.10;99.90;;;;;;5034161;28;20567;-77
2023/05/21 08:34:17;;;;;;;0.13;0.13;;;17.30;99.90;;;;;;5034072;28;20201;-78
2023/05/21 08:36:44;;;;;;;0.20;0.20;;;17.30;99.90;;;;;;5033630;28;20724;-77
2023/05/21 08:39:11;;;;;;;0.10;0.10;;;17.30;99.90;;;;;;5032535;28;20213;-76
2023/05/21 08:41:38;;;;;;;0.15;0.15;;;17.60;99.90;;;;;;5031730;28;20725;-77
2023/05/21 08:44:10;;;;;;;0.10;0.10;;;17.80;99.90;;;;;;5033480;28;20682;-76
2023/05/21 08:46:39;;;;;;;0.10;0.10;;;18.00;99.90;;;;;;5032110;28;20202;-77
2023/05/21 08:49:11;;;;;;;0.20;0.20;;;18.40;99.90;;;;;;5015857;28;20194;-76
2023/05/21 08:51:38;;;;;;;0.10;0.10;;;18.40;99.90;;;;;;5033489;28;20205;-77
2023/05/21 08:54:04;;;;;;;0.40;0.40;;;18.70;99.90;;;;;;5015937;28;20669;-77
2023/05/21 08:56:34;;;;;;;0.10;0.10;;;19.00;99.90;;;;;;5033515;28;20194;-76
2023/05/21 08:59:01;;;;;;;0.10;0.10;;;18.90;99.90;;;;;;5015770;28;20564;-76
2023/05/21 09:01:27;;;;;;;0.10;0.10;;;18.90;99.90;;;;;;5033532;28;20190;-76
2023/05/21 09:03:56;;;;;;;0.10;0.10;;;19.10;99.90;;;;;;5015370;28;20283;-76
2023/05/21 09:06:24;;;;;;;0.20;0.20;;;19.20;99.90;;;;;;5015401;28;20618;-76
2023/05/21 09:08:59;;;;;;;0.10;0.10;;;19.60;99.90;;;;;;5016040;28;20198;-76
2023/05/21 09:11:25;;;;;;;0.15;0.15;;;19.70;99.90;;;;;;5031952;28;20198;-76
2023/05/21 09:13:52;;;;;;;0.30;0.30;;;20.00;99.90;;;;;;5033024;28;20649;-76
2023/05/21 09:16:18;;;;;;;0.63;0.45;;;20.30;99.90;;;;;;5015468;28;20687;-76
2023/05/21 09:18:44;;;;;;;2.13;0.57;;;20.10;99.90;;;;;;5033157;28;20202;-76
2023/05/21 09:21:27;;;;;;;0.08;0.08;;;19.80;99.90;;;;;;5033154;28;20201;-76
2023/05/21 09:23:58;;;;;;;0.28;0.20;;;19.60;99.90;;;;;;5033215;28;20191;-76
2023/05/21 09:26:25;;;;;;;0.57;0.57;;;19.70;99.90;;;;;;5015078;28;20198;-76
2023/05/21 09:28:55;;;;;;;0.10;0.10;;;19.60;99.90;;;;;;5033069;28;20679;-76
2023/05/21 09:31:22;;;;;;;0.25;0.25;;;19.90;99.90;;;;;;5032735;28;20201;-76
2023/05/21 09:33:48;;;;;;;0.10;0.10;;;20.40;99.90;;;;;;5015480;28;20198;-76
2023/05/21 09:36:16;;;;;;;0.10;0.10;;;20.80;99.90;;;;;;5032875;28;20275;-76
2023/05/21 09:38:44;;;;;;;1.38;0.85;;;20.70;99.90;;;;;;5032731;28;20209;-76
2023/05/21 09:41:09;;;;;;;0.20;0.20;;;21.10;99.90;;;;;;5032741;28;20206;-77
2023/05/21 09:43:35;;;;;;;0.32;0.32;;;21.40;99.90;;;;;;5014394;28;20202;-76
2023/05/21 09:46:01;;;;;;;0.40;0.40;;;21.70;99.90;;;;;;5031326;28;20212;-75
2023/05/21 09:48:40;;;;;;;0.45;0.45;;;22.10;99.80;;;;;;5032457;28;20268;-76
2023/05/21 09:51:14;;;;;;;2.10;1.33;;;22.40;99.60;;;;;;5032546;28;20649;-76
2023/05/21 09:53:51;;;;;;;0.55;0.30;;;22.50;99.90;;;;;;5014445;28;20194;-76
2023/05/21 09:56:22;;;;;;;0.30;0.30;;;22.60;98.60;;;;;;5014741;28;20267;-76
2023/05/21 09:58:50;;;;;;;0.30;0.30;;;22.40;98.30;;;;;;5014842;28;20197;-77
2023/05/21 10:01:18;;;;;;;0.20;0.20;;;21.90;95.50;;;;;;5014821;28;20237;-77
2023/05/21 10:03:51;;;;;;;0.40;0.40;;;21.80;97.40;;;;;;5032126;28;20226;-77
2023/05/21 10:06:18;;;;;;;0.30;0.30;;;21.60;98.10;;;;;;5014945;28;20213;-77
2023/05/21 10:08:46;;;;;;;0.38;0.38;;;21.80;96.50;;;;;;5015038;28;20604;-77
2023/05/21 10:11:13;;;;;;;0.30;0.30;;;21.90;97.30;;;;;;5014448;28;20226;-77
2023/05/21 10:13:43;;;;;;;0.52;0.47;;;21.50;97.60;;;;;;5014503;28;20690;-76
2023/05/21 10:16:09;;;;;;;2.38;0.30;;;22.10;97.30;;;;;;5014905;28;20202;-77
2023/05/21 10:18:37;;;;;;;0.50;0.50;;;22.00;96.30;;;;;;5032175;28;20190;-77
2023/05/21 10:21:05;;;;;;;1.45;0.95;;;22.60;97.30;;;;;;5032285;28;20665;-77
2023/05/21 10:23:33;;;;;;;0.47;0.43;;;23.20;94.10;;;;;;5014476;28;20205;-77
2023/05/21 10:26:00;;;;;;;0.30;0.30;;;23.10;95.90;;;;;;5032254;28;20205;-77
2023/05/21 10:28:27;;;;;;;0.20;0.20;;;22.80;95.60;;;;;;5014635;28;20198;-77
2023/05/21 10:30:53;;;;;;;5.05;0.50;;;22.70;94.40;;;;;;5014525;28;20204;-78
2023/05/21 10:33:21;;;;;;;0.30;0.30;;;22.70;96.30;;;;;;5032071;28;20186;-77
2023/05/21 10:35:50;;;;;;;0.50;0.43;;;22.80;93.40;;;;;;5014372;28;20214;-77
2023/05/21 10:38:17;;;;;;;0.35;0.35;;;22.60;93.80;;;;;;5031864;28;20194;-76
2023/05/21 10:40:44;;;;;;;2.03;0.70;;;23.00;93.00;;;;;;5031912;28;20657;-76
2023/05/21 10:43:33;;;;;;;0.38;0.38;;;23.50;93.30;;;;;;5032157;28;20198;-77
2023/05/21 10:46:32;;;;;;;0.30;0.30;;;24.00;93.10;;;;;;5030794;28;20206;-77
2023/05/21 10:49:18;;;;;;;0.20;0.20;;;24.40;92.50;;;;;;5014361;28;20289;-77
2023/05/21 10:51:52;;;;;;;0.45;0.45;;;24.40;92.00;;;;;;5024774;28;20225;-77
2023/05/21 10:54:30;;;;;;;0.80;0.57;;;24.10;91.40;;;;;;4994888;28;20199;-77
2023/05/21 10:57:13;;;;;;;0.13;0.13;;;24.00;90.00;;;;;;5012279;28;20199;-76
2023/05/21 10:59:46;;;;;;;1.45;0.60;;;23.90;91.00;;;;;;5011107;28;20202;-77
2023/05/21 11:02:18;;;;;;;0.60;0.60;;;23.80;88.60;;;;;;5011957;28;20300;-76
2023/05/21 11:04:44;;;;;;;0.30;0.30;;;22.80;90.30;;;;;;5011901;28;20251;-77
2023/05/21 11:07:14;;;;;;;0.88;0.63;;;23.40;90.50;;;;;;5026726;28;20216;-78
2023/05/21 11:09:39;;;;;;;0.30;0.30;;;24.10;91.80;;;;;;5017802;28;20202;-77
2023/05/21 11:12:08;;;;;;;0.57;0.52;;;25.10;90.00;;;;;;5035498;28;20198;-77
2023/05/21 11:14:39;;;;;;;0.57;0.50;;;25.40;89.80;;;;;;5017560;28;20190;-77
2023/05/21 11:17:37;;;;;;;0.55;0.50;;;24.50;89.00;;;;;;5035497;28;20221;-77
2023/05/21 11:20:07;;;;;;;0.20;0.20;;;24.90;89.70;;;;;;5035461;28;20193;-77
2023/05/21 11:22:35;;;;;;;0.40;0.40;;;25.20;88.40;;;;;;5035177;28;20661;-77
2023/05/21 11:25:01;;;;;;;0.50;0.50;;;25.20;85.40;;;;;;5035592;28;20273;-77
2023/05/21 11:27:35;;;;;;;0.85;0.47;;;25.40;87.90;;;;;;5017201;28;20238;-77
2023/05/21 11:30:09;;;;;;;0.20;0.20;;;25.70;87.30;;;;;;5035336;28;20201;-77
2023/05/21 11:33:01;;;;;;;0.38;0.38;;;26.00;84.60;;;;;;5034984;28;20194;-77
2023/05/21 11:35:27;;;;;;;0.25;0.25;;;25.60;86.50;;;;;;5023946;28;20696;-77
2023/05/21 11:37:53;;;;;;;0.28;0.28;;;25.70;86.20;;;;;;5017173;28;20198;-77
2023/05/21 11:40:26;;;;;;;0.20;0.20;;;25.40;81.80;;;;;;5034996;28;20273;-77
2023/05/21 11:42:54;;;;;;;0.68;0.57;;;25.60;86.40;;;;;;5035026;28;20737;-77
2023/05/21 11:45:29;;;;;;;0.32;0.32;;;26.20;84.90;;;;;;5016753;28;20202;-77
2023/05/21 11:47:56;;;;;;;0.63;0.40;;;26.50;80.80;;;;;;5026494;28;20667;-77
2023/05/21 11:50:21;;;;;;;0.30;0.30;;;26.60;81.00;;;;;;5014893;28;20221;-77
2023/05/21 11:52:48;;;;;;;0.88;0.65;;;26.20;81.90;;;;;;5015028;28;20195;-77
2023/05/21 11:55:14;;;;;;;0.47;0.32;;;25.90;80.70;;;;;;4997368;28;20678;-77
2023/05/21 11:57:41;;;;;;;0.15;0.13;;;26.30;81.80;;;;;;5014913;28;20257;-77
2023/05/21 12:00:15;;;;;;;0.50;0.50;;;26.80;79.40;;;;;;5014943;28;20210;-77
2023/05/21 12:02:50;;;;;;;0.20;0.20;;;26.90;77.90;;;;;;5003728;28;20208;-77
2023/05/21 12:05:16;;;;;;;0.50;0.40;;;26.60;80.60;;;;;;5033156;28;20237;-77
2023/05/21 12:07:44;;;;;;;0.35;0.35;;;27.00;83.00;;;;;;5033115;28;20776;-77
2023/05/21 12:10:11;;;;;;;0.25;0.25;;;27.00;80.60;;;;;;5034591;28;20628;-78
2023/05/21 12:12:37;;;;;;;0.20;0.20;;;26.90;79.50;;;;;;5034201;28;20195;-77
2023/05/21 12:15:03;;;;;;;0.20;0.20;;;27.20;76.20;;;;;;5033172;28;20256;-77
2023/05/21 12:17:30;;;;;;;0.43;0.43;;;26.90;75.30;;;;;;5032782;28;20210;-77
2023/05/21 12:19:56;;;;;;;0.30;0.30;;;26.60;72.50;;;;;;5033057;28;20566;-77
2023/05/21 12:22:24;;;;;;;0.15;0.15;;;26.20;74.20;;;;;;5034142;28;20190;-77
2023/05/21 12:24:50;;;;;;;0.52;0.45;;;26.20;73.80;;;;;;5033247;28;20198;-77
2023/05/21 12:27:17;;;;;;;0.20;0.20;;;26.00;74.80;;;;;;5032739;28;20649;-77
2023/05/21 12:29:48;;;;;;;0.28;0.28;;;25.30;74.50;;;;;;5032634;28;20198;-77
2023/05/21 12:32:15;;;;;;;0.20;0.20;;;25.20;76.00;;;;;;5033833;28;20592;-77
2023/05/21 12:34:53;;;;;;;0.88;0.57;;;25.40;74.80;;;;;;5033868;28;20194;-77
2023/05/21 12:37:23;;;;;;;0.28;0.28;;;25.30;76.60;;;;;;5032399;28;20236;-77
2023/05/21 12:39:50;;;;;;;0.70;0.68;;;25.10;75.00;;;;;;5034123;28;20244;-77
2023/05/21 12:42:23;;;;;;;0.20;0.20;;;25.60;78.50;;;;;;5033767;28;20205;-77
2023/05/21 12:44:51;;;;;;;0.52;0.52;;;26.40;75.40;;;;;;5021281;28;20588;-77
2023/05/21 12:47:17;;;;;;;1.90;0.30;;;26.90;73.20;;;;;;4996608;28;20640;-77
2023/05/21 12:49:46;;;;;;;0.38;0.30;;;27.10;73.60;;;;;;5019300;28;20500;-77
2023/05/21 12:52:14;;;;;;;0.30;0.30;;;27.70;70.00;;;;;;5033618;28;20606;-77